Flight Track Log - Related Links

Times and Time Zones

All times are in EDT time to prevent confusion due to time zone crossing. See the UAL4305 flight status page for this flight to view local times or setup timezone preferences in your user account.

Time Position Orientation Groundspeed Altitude Reporting Facility
EDT Latitude Longitude Course Direction KTS MPH feet Rate Location/Type
Thu 10:39:46 PM 29.9619 -95.3458 North 163 188 800  Level Houston Center
Thu 10:41:42 PM 29.9997 -95.3814 321° Northwest 210 242 5,700 2,697 Climbing Houston Center
Thu 10:42:44 PM 30.0644 -95.3719 North 230 265 8,800 2,683 Climbing Houston Center
Thu 10:43:00 PM 30.3272 -95.3070 North  Level FlightAware Approximate
Thu 10:43:45 PM 30.1331 -95.3642 North 243 280 11,200  Level Houston Center
Thu 10:44:00 PM 30.4133 -95.3000 North  Level FlightAware Approximate
Thu 10:44:46 PM 30.2125 -95.3553 North 280 322 12,900  Level Houston Center
Thu 10:45:00 PM 30.4997 -95.3000 North  Level FlightAware Approximate
Thu 10:45:47 PM 30.3003 -95.3511 North 312 359 14,500  Level Houston Center
Thu 10:46:48 PM 30.3842 -95.3914 338° Northwest 321 369 16,500 1,636 Climbing Houston Center
Thu 10:47:48 PM 30.4706 -95.4286 340° North 330 380 17,800 1,736 Climbing Houston Center
Thu 10:48:49 PM 30.5581 -95.4689 338° Northwest 335 386 20,000 2,016 Climbing Houston Center
Thu 10:49:50 PM 30.6444 -95.5069 339° North 332 382 21,900 984 Climbing Houston Center
Thu 10:50:51 PM 30.7517 -95.5558 339° North 341 392 22,000 49 Climbing Houston Center
Thu 10:51:52 PM 30.8528 -95.6025 338° Northwest 373 429 22,000  Level Houston Center
Thu 10:52:53 PM 30.9556 -95.6489 339° North 388 447 22,000  Level Houston Center
Thu 10:53:54 PM 31.0622 -95.6969 339° North 400 460 22,000  Level Houston Center
Thu 10:54:56 PM 31.1683 -95.7456 339° North 405 466 22,000  Level Houston Center
Thu 10:55:15 PM 31.2044 -95.7594 342° North 397 457 22,000  Level Fort Worth Center
Thu 10:56:15 PM 31.3097 -95.8111 337° Northwest 397 457 22,000  Level Fort Worth Center
Thu 10:57:15 PM 31.4061 -95.8531 340° North 404 465 22,000  Level Fort Worth Center
Thu 10:58:15 PM 31.5111 -95.9025 338° Northwest 404 465 22,000 -350 Level Fort Worth Center
Thu 10:59:15 PM 31.6142 -95.9497 339° North 395 455 21,300 -900 Descending Fort Worth Center
Thu 11:00:15 PM 31.7106 -95.9969 337° Northwest 384 442 20,200 -1,250 Descending Fort Worth Center
Thu 11:01:15 PM 31.8072 -96.0419 338° Northwest 378 435 18,800 -1,300 Descending Fort Worth Center
Thu 11:02:15 PM 31.9036 -96.0869 338° Northwest 378 435 17,600 -1,400 Descending Fort Worth Center
Thu 11:03:15 PM 31.9958 -96.1297 339° North 346 398 16,000 -1,700 Descending Fort Worth Center
Thu 11:04:15 PM 32.0797 -96.1678 339° North 325 374 14,200 -1,850 Descending Fort Worth Center
Thu 11:05:15 PM 32.1617 -96.2083 337° Northwest 310 357 12,300 -1,400 Descending Fort Worth Center
Thu 11:06:15 PM 32.2353 -96.2739 323° Northwest 310 357 11,400 -650 Descending Fort Worth Center
Thu 11:07:15 PM 32.2922 -96.3467 313° West 335 386 11,000 -200 Descending Fort Worth Center
Thu 11:08:15 PM 32.3661 -96.4344 315° West 335 386 11,000  Level Fort Worth Center
Thu 11:09:15 PM 32.4231 -96.5003 316° Northwest 335 386 11,000 -550 Level Fort Worth Center
Thu 11:10:15 PM 32.4778 -96.5833 308° West 306 352 9,900 -1,400 Descending Fort Worth Center
Thu 11:11:15 PM 32.5158 -96.6472 305° West 273 314 8,200 -1,800 Descending Fort Worth Center
Thu 11:12:15 PM 32.5622 -96.7208 307° West 265 305 6,300 -1,550 Descending Fort Worth Center
Thu 11:13:15 PM 32.6000 -96.7797 307° West 260 299 5,100 -1,150 Descending Fort Worth Center
Thu 11:14:15 PM 32.6464 -96.8558 306° West 260 299 4,000 -950 Descending Fort Worth Center
Thu 11:15:15 PM 32.6800 -96.9122 305° West 253 291 3,200 -500 Descending Fort Worth Center
Thu 11:16:15 PM 32.7178 -96.9764 305° West 236 272 3,000 -200 Descending Fort Worth Center

Login

Don't have an account? Register now (free) for customized features, flight alerts, and more!